GMMX Información de aeropuertos

Información de pistas
Pista 10 Longitud 10170 ft Ancho 148 ft
Elevación 1506 ft Umbral 918 ft Rumbo 96
Pista 28 Longitud 10170 ft Ancho 148 ft
Elevación 1545 ft Umbral 0 ft Rumbo 276
Frecuencias
Tipo APP Nombre MARRAKECH Frequencia 119.7 MHZ
Tipo TWR Nombre MARRAKECH Frequencia 118.7 MHZ
Radioayudas
Tipo NDB Nombre Marrakech Frequencia 267 KHZ
Tipo VOR-DME Nombre Marrakech Frequencia 113300 KHZ
Información meteorológica y NOTAM
ADDS - METARS form results

(0439 UTC 27 January 2021)
Data provider http://aviationweather.gov/metar/data/
 
METAR text: GMMX 270430Z 06005KT 8000 NSC 11/07 Q1024 NOSIG
Conditions at: GMMX (MARRAKECH/MENARA, MA) observed 0430 UTC 27 January 2021
Temperature: 11.0°C (52°F)
Dewpoint: 7.0°C (45°F) [RH = 76%]
Pressure (altimeter): 30.24 inches Hg (1024.0 mb)
Winds: from the ENE (60 degrees) at 6 MPH (5 knots; 2.6 m/s)
Visibility: 5 miles ( 8 km)
Ceiling: at least 12,000 feet AGL
Clouds: sky clear below 12,000 feet AGL
Weather: no significant weather observed at this time

METAR text: GMMX 270400Z VRB02KT 8000 NSC 12/08 Q1024 NOSIG
Conditions at: GMMX (MARRAKECH/MENARA, MA) observed 0400 UTC 27 January 2021
Temperature: 12.0°C (54°F)
Dewpoint: 8.0°C (46°F) [RH = 76%]
Pressure (altimeter): 30.24 inches Hg (1024.0 mb)
Winds: variable direction winds at 2 MPH (2 knots; 1.0 m/s)
Visibility: 5 miles ( 8 km)
Ceiling: at least 12,000 feet AGL
Clouds: sky clear below 12,000 feet AGL
Weather: no significant weather observed at this time

Forecast for: GMMX (MARRAKECH/MENARA, MA)
Text: TAF GMMX 262300Z 2700/2806 04005KT 8000 NSC
Forecast period: 0000 UTC 27 January 2021 to 0600 UTC 28 January 2021
Forecast type: FROM: standard forecast or significant change
Winds: from the NE (40 degrees) at 6 MPH (5 knots; 2.6 m/s)
Visibility: 5 miles (8 km)
Ceiling: unknown
Clouds: missing
Weather: no significant weather forecast for this period
Text: PROB30
Forecast period: 0300 to 0900 UTC 27 January 2021
Forecast type: TEMPORARY: The following changes expected for less than half the time period
Visibility: 2.49 miles (4.01 km)
Ceiling: at least 12,000 feet AGL
Clouds: scattered clouds at 1000 feet AGL
Weather: BR  (mist)